Time;durP1;ratioP1;P1;durP2;ratioP2;P2;SDS_P1;SDS_P2;PMS_P1;PMS_P2;Temp;Humidity;BMP_temperature;BMP_pressure;BME280_temperature;BME280_humidity;BME280_pressure;Samples;Min_cycle;Max_cycle;Signal;HPM_P1;HPM_P2
2021/10/18 00:00:07;;;;;;;4.15;3.83;;;9.60;99.90;;;;;;5059579;28;20218;-75
2021/10/18 00:02:34;;;;;;;4.10;3.80;;;9.60;99.90;;;;;;5060549;28;20234;-76
2021/10/18 00:05:01;;;;;;;4.13;3.72;;;9.50;99.90;;;;;;5061275;28;20631;-79
2021/10/18 00:07:28;;;;;;;3.92;3.63;;;9.50;99.90;;;;;;5060945;28;20282;-78
2021/10/18 00:09:56;;;;;;;3.67;3.38;;;9.50;99.90;;;;;;5051757;28;20593;-75
2021/10/18 00:12:23;;;;;;;4.28;3.97;;;9.50;99.90;;;;;;5061232;28;20229;-76
2021/10/18 00:14:51;;;;;;;3.65;3.35;;;9.50;99.90;;;;;;5057791;28;20227;-76
2021/10/18 00:17:18;;;;;;;4.15;3.85;;;9.50;99.90;;;;;;5060492;28;20271;-76
2021/10/18 00:19:45;;;;;;;4.07;3.72;;;9.50;99.90;;;;;;5058637;28;20211;-75
2021/10/18 00:22:12;;;;;;;3.70;3.40;;;9.50;99.90;;;;;;5061636;28;20218;-77
2021/10/18 00:24:39;;;;;;;3.75;3.45;;;9.40;99.90;;;;;;5061057;28;20222;-77
2021/10/18 00:27:07;;;;;;;3.70;3.40;;;9.40;99.90;;;;;;5055320;28;20712;-75
2021/10/18 00:29:34;;;;;;;4.32;4.03;;;9.40;99.90;;;;;;5051919;28;20218;-77
2021/10/18 00:32:02;;;;;;;3.92;3.63;;;9.30;99.90;;;;;;5059927;28;20222;-75
2021/10/18 00:34:29;;;;;;;4.07;3.78;;;9.30;99.90;;;;;;5058364;28;20628;-78
2021/10/18 00:36:56;;;;;;;3.70;3.40;;;9.30;99.90;;;;;;5053622;28;20288;-78
2021/10/18 00:39:23;;;;;;;3.90;3.60;;;9.30;99.90;;;;;;5059454;28;20218;-76
2021/10/18 00:41:50;;;;;;;4.00;3.70;;;9.30;99.90;;;;;;5058687;28;20624;-76
2021/10/18 00:44:18;;;;;;;4.32;4.00;;;9.20;99.90;;;;;;5061081;28;20253;-77
2021/10/18 00:46:45;;;;;;;3.97;3.67;;;9.20;99.90;;;;;;5057730;28;20218;-77
2021/10/18 00:49:12;;;;;;;3.92;3.63;;;9.20;99.90;;;;;;5089456;22;20230;-79
2021/10/18 00:51:39;;;;;;;4.07;3.70;;;9.30;99.90;;;;;;5081201;28;20717;-78
2021/10/18 00:54:07;;;;;;;3.35;3.15;;;9.30;99.90;;;;;;5077922;28;20226;-79
2021/10/18 00:56:34;;;;;;;4.05;3.75;;;9.20;99.90;;;;;;5084962;28;20217;-78
2021/10/18 00:59:03;;;;;;;4.43;3.80;;;9.30;99.90;;;;;;5085953;28;20283;-79
2021/10/18 01:01:33;;;;;;;3.70;3.40;;;9.20;99.90;;;;;;5088713;28;20226;-77
2021/10/18 01:04:01;;;;;;;3.53;3.33;;;9.20;99.90;;;;;;5086047;28;20266;-79
2021/10/18 01:06:28;;;;;;;3.55;3.35;;;9.20;99.90;;;;;;5085990;28;20217;-78
2021/10/18 01:08:55;;;;;;;3.88;3.58;;;9.10;99.90;;;;;;5084010;28;20225;-78
2021/10/18 01:11:22;;;;;;;3.85;3.55;;;9.10;99.90;;;;;;5084684;28;20303;-77
2021/10/18 01:13:49;;;;;;;4.03;3.72;;;9.10;99.90;;;;;;5084845;28;20262;-77
2021/10/18 01:16:16;;;;;;;4.10;3.80;;;9.10;99.90;;;;;;5084042;27;20218;-78
2021/10/18 01:18:45;;;;;;;3.92;3.65;;;9.10;99.90;;;;;;5084929;28;20312;-78
2021/10/18 01:21:13;;;;;;;4.50;4.10;;;9.10;99.90;;;;;;5082727;28;20217;-78
2021/10/18 01:23:40;;;;;;;4.20;3.90;;;9.10;99.90;;;;;;5080843;28;20221;-78
2021/10/18 01:26:07;;;;;;;4.20;3.90;;;9.10;99.90;;;;;;5080754;28;20622;-78
2021/10/18 01:28:34;;;;;;;4.00;3.60;;;9.10;99.90;;;;;;5085488;28;20227;-79
2021/10/18 01:31:01;;;;;;;3.92;3.58;;;9.00;99.90;;;;;;5086119;28;20776;-79
2021/10/18 01:33:29;;;;;;;3.53;3.22;;;9.00;99.90;;;;;;5086221;28;20281;-80
2021/10/18 01:35:56;;;;;;;4.15;3.85;;;9.00;99.90;;;;;;5081211;28;20275;-79
2021/10/18 01:38:24;;;;;;;3.80;3.50;;;8.90;99.90;;;;;;5082501;28;20233;-76
2021/10/18 01:40:51;;;;;;;4.30;3.80;;;8.90;99.90;;;;;;5086364;28;20286;-76
2021/10/18 01:43:18;;;;;;;3.40;3.20;;;8.80;99.90;;;;;;5078843;28;20611;-77
2021/10/18 01:45:45;;;;;;;3.80;3.50;;;8.80;99.90;;;;;;5082453;28;20221;-79
2021/10/18 01:48:12;;;;;;;3.70;3.50;;;8.80;99.90;;;;;;5081339;28;20660;-76
2021/10/18 01:50:39;;;;;;;4.13;3.72;;;8.80;99.90;;;;;;5083085;28;20222;-77
2021/10/18 01:53:06;;;;;;;4.35;3.50;;;8.80;99.90;;;;;;5089916;28;20213;-80
2021/10/18 01:55:35;;;;;;;4.10;3.80;;;8.70;99.90;;;;;;5084784;28;20276;-78
2021/10/18 01:58:02;;;;;;;3.90;3.60;;;8.70;99.90;;;;;;5083708;28;20229;-79
2021/10/18 02:00:30;;;;;;;3.97;3.58;;;8.70;99.90;;;;;;5088360;28;20221;-79
2021/10/18 02:02:57;;;;;;;3.40;3.20;;;8.70;99.90;;;;;;5083128;28;20244;-79
2021/10/18 02:05:24;;;;;;;3.85;3.33;;;8.70;99.90;;;;;;5084418;28;20221;-80
2021/10/18 02:07:51;;;;;;;3.85;3.55;;;8.70;99.90;;;;;;5085120;28;20263;-79
2021/10/18 02:10:18;;;;;;;3.38;3.13;;;8.80;99.90;;;;;;5082080;28;20226;-79
2021/10/18 02:12:46;;;;;;;3.55;3.30;;;8.80;99.90;;;;;;5084983;28;20220;-79
2021/10/18 02:15:14;;;;;;;3.60;3.30;;;8.70;99.90;;;;;;5079798;28;20218;-79
2021/10/18 02:17:42;;;;;;;3.90;3.60;;;8.70;99.90;;;;;;5086830;28;20225;-79
2021/10/18 02:20:11;;;;;;;4.32;4.03;;;8.70;99.90;;;;;;5079986;28;20700;-79
2021/10/18 02:22:38;;;;;;;4.10;3.80;;;8.70;99.90;;;;;;5079049;28;20628;-79
2021/10/18 02:25:07;;;;;;;3.85;3.55;;;8.70;99.90;;;;;;5080154;28;20218;-79
2021/10/18 02:27:35;;;;;;;3.83;3.53;;;8.60;99.90;;;;;;5083297;28;20705;-79
2021/10/18 02:30:04;;;;;;;3.92;3.63;;;8.60;99.90;;;;;;5077722;28;20358;-79
2021/10/18 02:32:31;;;;;;;3.40;3.20;;;8.60;99.90;;;;;;5086272;28;20236;-80
2021/10/18 02:34:58;;;;;;;3.72;3.45;;;8.60;99.90;;;;;;5083293;28;20221;-80
2021/10/18 02:37:25;;;;;;;3.20;3.00;;;8.60;99.90;;;;;;5076189;28;20225;-79
2021/10/18 02:39:52;;;;;;;4.05;3.75;;;8.60;99.90;;;;;;5087292;28;20608;-75
2021/10/18 02:42:19;;;;;;;3.80;3.50;;;8.60;99.90;;;;;;5082915;28;20218;-78
2021/10/18 02:44:47;;;;;;;3.42;3.17;;;8.60;99.90;;;;;;5075872;28;20232;-77
2021/10/18 02:47:15;;;;;;;4.10;3.70;;;8.60;99.90;;;;;;5077280;28;20225;-78
2021/10/18 02:49:42;;;;;;;3.85;3.55;;;8.60;99.90;;;;;;5079130;28;20229;-77
2021/10/18 02:52:09;;;;;;;3.20;2.95;;;8.60;99.90;;;;;;5079655;28;20225;-77
2021/10/18 02:54:37;;;;;;;3.78;3.35;;;8.50;99.90;;;;;;5080239;28;20217;-78
2021/10/18 02:57:04;;;;;;;3.35;3.15;;;8.50;99.90;;;;;;5081722;28;20790;-77
2021/10/18 02:59:31;;;;;;;3.78;3.47;;;8.50;99.90;;;;;;5078478;28;20232;-80
2021/10/18 03:01:58;;;;;;;3.33;3.13;;;8.50;99.90;;;;;;5081174;28;20753;-76
2021/10/18 03:04:27;;;;;;;4.07;3.78;;;8.50;99.90;;;;;;5077211;28;20231;-79
2021/10/18 03:06:54;;;;;;;3.83;3.55;;;8.50;99.90;;;;;;5080998;28;20282;-77
2021/10/18 03:09:21;;;;;;;3.85;3.30;;;8.50;99.90;;;;;;5082360;28;20230;-79
2021/10/18 03:11:48;;;;;;;3.70;3.40;;;8.50;99.90;;;;;;5075719;28;20233;-79
2021/10/18 03:14:15;;;;;;;3.75;3.45;;;8.40;99.90;;;;;;5082869;28;20719;-77
2021/10/18 03:16:42;;;;;;;4.03;3.60;;;8.50;99.90;;;;;;5084868;28;20251;-77
2021/10/18 03:19:08;;;;;;;3.53;3.30;;;8.40;99.90;;;;;;5080567;28;20226;-79
2021/10/18 03:21:37;;;;;;;3.20;2.90;;;8.40;99.90;;;;;;5079810;28;20266;-78
2021/10/18 03:24:05;;;;;;;3.63;3.33;;;8.40;99.90;;;;;;5082161;28;20265;-78
2021/10/18 03:26:32;;;;;;;3.92;3.53;;;8.40;99.90;;;;;;5082813;28;20221;-79
2021/10/18 03:28:59;;;;;;;4.10;3.72;;;8.30;99.90;;;;;;5077446;28;20298;-78
2021/10/18 03:31:26;;;;;;;3.53;3.33;;;8.30;99.90;;;;;;5084365;28;20236;-79
2021/10/18 03:33:53;;;;;;;3.50;3.30;;;8.20;99.90;;;;;;5079499;28;20221;-79
2021/10/18 03:36:20;;;;;;;3.40;3.10;;;8.20;99.90;;;;;;5086035;28;20220;-79
2021/10/18 03:38:48;;;;;;;3.60;3.33;;;8.20;99.90;;;;;;5088151;28;20233;-79
2021/10/18 03:41:15;;;;;;;3.58;3.35;;;8.20;99.90;;;;;;5085128;28;20286;-77
2021/10/18 03:43:42;;;;;;;3.92;3.63;;;8.20;99.90;;;;;;5081325;28;20272;-79
2021/10/18 03:46:10;;;;;;;3.45;3.15;;;8.10;99.90;;;;;;5085245;28;20286;-77
2021/10/18 03:48:37;;;;;;;3.65;3.35;;;8.10;99.90;;;;;;5083743;28;20711;-77
2021/10/18 03:51:04;;;;;;;3.13;2.92;;;8.10;99.90;;;;;;5083364;28;20288;-78
2021/10/18 03:53:31;;;;;;;3.10;2.90;;;8.10;99.90;;;;;;5088001;28;20319;-79
2021/10/18 03:55:59;;;;;;;3.70;3.50;;;8.10;99.90;;;;;;5085020;28;20225;-77
2021/10/18 03:58:26;;;;;;;3.85;3.58;;;8.10;99.90;;;;;;5081315;28;20259;-77
2021/10/18 04:00:53;;;;;;;4.07;3.70;;;8.00;99.90;;;;;;5083663;28;20255;-78
2021/10/18 04:03:20;;;;;;;3.58;3.30;;;8.00;99.90;;;;;;5081879;28;20218;-79
2021/10/18 04:05:47;;;;;;;3.90;3.60;;;8.00;99.90;;;;;;5084705;28;20282;-79
2021/10/18 04:08:14;;;;;;;4.00;3.70;;;8.00;99.90;;;;;;5078720;28;20218;-79
2021/10/18 04:10:43;;;;;;;3.83;3.53;;;8.00;99.90;;;;;;5082447;28;20221;-79
2021/10/18 04:13:11;;;;;;;3.70;3.40;;;8.00;99.90;;;;;;5085435;28;20217;-78
2021/10/18 04:15:38;;;;;;;3.33;3.03;;;8.00;99.90;;;;;;5079217;28;20408;-76
2021/10/18 04:18:05;;;;;;;3.28;3.08;;;8.00;99.90;;;;;;5078306;28;20229;-80
2021/10/18 04:20:32;;;;;;;3.15;2.95;;;8.00;99.90;;;;;;5081732;28;20279;-79
2021/10/18 04:22:59;;;;;;;3.65;3.40;;;7.90;99.90;;;;;;5084030;28;20225;-78
2021/10/18 04:25:26;;;;;;;4.10;3.80;;;7.90;99.90;;;;;;5083264;28;20988;-79
2021/10/18 04:27:53;;;;;;;3.75;3.45;;;7.90;99.90;;;;;;5080740;28;20234;-80
2021/10/18 04:30:22;;;;;;;3.55;3.25;;;7.90;99.90;;;;;;5080845;28;20266;-79
2021/10/18 04:32:49;;;;;;;3.25;2.95;;;7.90;99.90;;;;;;5081927;28;20247;-78
2021/10/18 04:35:16;;;;;;;3.20;3.00;;;7.90;99.90;;;;;;5082531;28;20241;-77
2021/10/18 04:37:43;;;;;;;3.10;2.90;;;8.00;99.90;;;;;;5084647;28;20229;-77
2021/10/18 04:40:10;;;;;;;3.97;3.67;;;8.00;99.90;;;;;;5077663;28;20218;-78
2021/10/18 04:42:37;;;;;;;3.30;3.00;;;8.00;99.90;;;;;;5082603;28;20236;-76
2021/10/18 04:45:05;;;;;;;3.38;3.17;;;8.00;99.90;;;;;;5078152;28;20225;-79
2021/10/18 04:47:33;;;;;;;3.10;2.90;;;8.00;99.90;;;;;;5084185;28;20992;-80
2021/10/18 04:50:00;;;;;;;3.50;3.30;;;8.00;99.90;;;;;;5084357;28;20250;-77
2021/10/18 04:52:27;;;;;;;3.47;3.28;;;8.00;99.90;;;;;;5083316;28;20222;-78
2021/10/18 04:54:54;;;;;;;3.50;3.20;;;8.00;99.90;;;;;;5079460;28;20278;-78
2021/10/18 04:57:21;;;;;;;3.28;3.08;;;8.00;99.90;;;;;;5083506;28;20730;-76
2021/10/18 04:59:48;;;;;;;3.28;3.08;;;8.00;99.90;;;;;;5081589;28;20267;-77
2021/10/18 05:02:15;;;;;;;3.60;3.40;;;8.00;99.90;;;;;;5078976;28;20712;-78
2021/10/18 05:04:44;;;;;;;3.60;3.38;;;8.00;99.90;;;;;;5078113;28;20283;-77
2021/10/18 05:07:11;;;;;;;3.35;3.15;;;7.90;99.90;;;;;;5082006;28;20282;-78
2021/10/18 05:09:38;;;;;;;3.90;3.60;;;7.90;99.90;;;;;;5085084;28;20221;-78
2021/10/18 05:12:06;;;;;;;3.50;3.13;;;7.90;99.90;;;;;;5083046;28;20227;-77
2021/10/18 05:14:33;;;;;;;3.17;2.97;;;7.90;99.90;;;;;;5077468;28;20229;-80
2021/10/18 05:17:00;;;;;;;3.20;3.00;;;7.90;99.90;;;;;;5079316;28;20274;-75
2021/10/18 05:19:27;;;;;;;3.55;3.35;;;7.90;99.90;;;;;;5078875;28;20225;-79
2021/10/18 05:21:55;;;;;;;3.28;3.08;;;7.90;99.90;;;;;;5082878;28;20229;-77
2021/10/18 05:24:22;;;;;;;3.50;3.25;;;7.90;99.90;;;;;;5077607;28;20283;-78
2021/10/18 05:26:49;;;;;;;3.20;3.00;;;7.80;99.90;;;;;;5079177;28;20221;-79
2021/10/18 05:29:16;;;;;;;3.92;3.63;;;7.80;99.90;;;;;;5077188;28;20287;-77
2021/10/18 05:31:43;;;;;;;3.60;3.30;;;7.80;99.90;;;;;;5077025;28;20233;-75
2021/10/18 05:34:10;;;;;;;3.35;3.15;;;7.80;99.90;;;;;;5080235;28;20225;-77
2021/10/18 05:36:37;;;;;;;3.05;2.85;;;7.80;99.90;;;;;;5077673;28;20222;-77
2021/10/18 05:39:06;;;;;;;3.33;3.13;;;7.80;99.90;;;;;;5084172;28;20232;-79
2021/10/18 05:41:33;;;;;;;3.00;2.80;;;7.90;99.90;;;;;;5077032;28;20667;-76
2021/10/18 05:44:00;;;;;;;3.35;3.15;;;7.90;99.90;;;;;;5079367;28;20228;-78
2021/10/18 05:46:27;;;;;;;3.67;3.45;;;7.90;99.90;;;;;;5080323;28;20679;-75
2021/10/18 05:48:54;;;;;;;3.78;3.47;;;7.90;99.90;;;;;;5075802;28;20715;-75
2021/10/18 05:51:21;;;;;;;3.45;3.25;;;7.90;99.90;;;;;;5070508;28;20278;-76
2021/10/18 05:53:48;;;;;;;3.72;3.42;;;8.00;99.90;;;;;;5063853;28;20275;-79
2021/10/18 05:56:16;;;;;;;3.42;3.22;;;8.00;99.90;;;;;;5065511;28;20225;-77
2021/10/18 05:58:43;;;;;;;3.50;3.30;;;8.00;99.90;;;;;;5060630;28;20476;-78
2021/10/18 06:01:10;;;;;;;3.42;3.22;;;8.00;99.90;;;;;;5062578;28;20271;-78
2021/10/18 06:03:37;;;;;;;3.15;2.95;;;8.10;99.90;;;;;;5065040;28;20213;-78
2021/10/18 06:06:07;;;;;;;3.53;3.33;;;8.10;99.90;;;;;;5071306;28;20487;-75
2021/10/18 06:08:34;;;;;;;3.90;3.60;;;8.10;99.90;;;;;;5070409;28;20237;-79
2021/10/18 06:11:03;;;;;;;3.13;2.92;;;8.10;99.90;;;;;;5065627;28;20225;-80
2021/10/18 06:13:32;;;;;;;4.18;3.88;;;8.10;99.90;;;;;;5065940;28;20316;-78
2021/10/18 06:15:59;;;;;;;4.10;3.70;;;8.20;99.90;;;;;;5062908;28;20781;-79
2021/10/18 06:18:26;;;;;;;3.63;3.40;;;8.20;99.90;;;;;;5069919;28;20226;-78
2021/10/18 06:20:55;;;;;;;3.72;3.42;;;8.10;99.90;;;;;;5064327;28;20678;-78
2021/10/18 06:23:23;;;;;;;4.78;4.38;;;8.20;99.90;;;;;;5072381;28;20225;-76
2021/10/18 06:25:50;;;;;;;3.40;3.20;;;8.10;99.90;;;;;;5066283;28;20634;-77
2021/10/18 06:28:17;;;;;;;3.35;3.15;;;8.10;99.90;;;;;;5068257;28;20231;-77
2021/10/18 06:30:46;;;;;;;3.78;3.47;;;8.00;99.90;;;;;;5065344;28;20303;-75
2021/10/18 06:33:13;;;;;;;3.83;3.53;;;8.00;99.90;;;;;;5072844;28;20280;-77
2021/10/18 06:35:40;;;;;;;3.92;3.63;;;8.10;99.90;;;;;;5069531;28;20240;-79
2021/10/18 06:38:11;;;;;;;3.53;3.22;;;8.10;99.90;;;;;;5063731;28;20790;-78
2021/10/18 06:40:38;;;;;;;3.17;2.97;;;8.20;99.90;;;;;;5072369;28;20226;-77
2021/10/18 06:43:06;;;;;;;3.90;3.60;;;8.30;99.90;;;;;;5072415;28;20270;-77
2021/10/18 06:45:33;;;;;;;3.65;3.30;;;8.40;99.90;;;;;;5071645;28;20218;-78
2021/10/18 06:48:01;;;;;;;3.88;3.47;;;8.40;99.90;;;;;;5068297;28;20290;-78
2021/10/18 06:50:29;;;;;;;3.83;3.53;;;8.50;99.90;;;;;;5049963;22;20222;-77
2021/10/18 06:52:57;;;;;;;3.88;3.58;;;8.50;99.90;;;;;;5050783;28;20233;-79
2021/10/18 06:55:27;;;;;;;3.42;3.15;;;8.60;99.90;;;;;;5061629;28;20226;-79
2021/10/18 06:57:57;;;;;;;2.95;2.75;;;8.60;99.90;;;;;;5054444;28;20229;-79
2021/10/18 07:00:24;;;;;;;3.60;3.40;;;8.70;99.90;;;;;;5061477;28;20316;-79
2021/10/18 07:02:51;;;;;;;3.40;3.10;;;8.80;99.90;;;;;;5058182;28;20979;-77
2021/10/18 07:05:19;;;;;;;3.28;3.08;;;8.90;99.90;;;;;;5056410;28;20221;-78
2021/10/18 07:07:46;;;;;;;3.50;3.30;;;9.00;99.90;;;;;;5033800;28;20234;-77
2021/10/18 07:10:13;;;;;;;3.60;3.30;;;9.10;99.90;;;;;;5053820;28;20716;-76
2021/10/18 07:12:40;;;;;;;4.00;3.70;;;9.20;99.90;;;;;;5055234;28;20279;-81
2021/10/18 07:15:09;;;;;;;3.83;3.38;;;9.30;99.90;;;;;;5055007;28;20218;-78
2021/10/18 07:17:36;;;;;;;3.40;3.20;;;9.30;99.90;;;;;;5061627;28;20232;-76
2021/10/18 07:20:05;;;;;;;3.75;3.45;;;9.40;99.90;;;;;;5053824;28;20308;-76
2021/10/18 07:22:41;;;;;;;3.75;3.45;;;9.60;99.90;;;;;;5058753;28;20213;-76
2021/10/18 07:25:09;;;;;;;3.63;3.33;;;10.00;99.90;;;;;;5052178;28;20217;-81
2021/10/18 07:27:36;;;;;;;3.85;3.55;;;10.40;99.90;;;;;;5052867;28;20534;-76
2021/10/18 07:30:04;;;;;;;4.13;3.83;;;10.70;99.90;;;;;;5060108;28;21189;-81
2021/10/18 07:32:32;;;;;;;3.50;3.20;;;11.00;99.90;;;;;;5062745;28;20226;-77
2021/10/18 07:35:00;;;;;;;3.97;3.67;;;11.30;99.90;;;;;;5055485;28;20298;-75
2021/10/18 07:37:28;;;;;;;4.40;4.00;;;11.80;99.90;;;;;;5058594;28;20592;-82
2021/10/18 07:39:57;;;;;;;5.18;4.68;;;12.10;99.90;;;;;;5061233;28;20233;-78
2021/10/18 07:42:24;;;;;;;4.15;3.83;;;12.30;99.90;;;;;;5061540;28;20230;-76
2021/10/18 07:44:53;;;;;;;4.43;4.03;;;12.70;99.90;;;;;;5064085;28;20230;-81
2021/10/18 07:47:21;;;;;;;4.20;3.83;;;12.90;99.90;;;;;;5057941;28;20226;-80
2021/10/18 07:49:48;;;;;;;4.60;4.22;;;13.10;99.90;;;;;;5064041;28;20252;-81
2021/10/18 07:52:17;;;;;;;4.45;4.05;;;13.70;99.90;;;;;;5065431;28;20218;-80
2021/10/18 07:54:46;;;;;;;4.93;4.50;;;14.40;99.90;;;;;;5064760;28;20309;-81
2021/10/18 07:57:15;;;;;;;4.22;3.92;;;15.00;99.90;;;;;;5059289;28;20222;-77
2021/10/18 07:59:42;;;;;;;4.07;3.78;;;15.70;99.90;;;;;;5057004;28;20546;-77
2021/10/18 08:02:09;;;;;;;5.05;3.92;;;16.10;99.90;;;;;;5057628;28;20232;-77
2021/10/18 08:04:36;;;;;;;5.75;4.07;;;16.40;99.90;;;;;;5056904;28;20226;-79
2021/10/18 08:07:04;;;;;;;4.85;4.30;;;16.30;99.90;;;;;;5056209;28;20218;-77
2021/10/18 08:09:31;;;;;;;4.22;3.92;;;16.10;99.90;;;;;;5051176;28;20229;-79
2021/10/18 08:11:58;;;;;;;3.72;3.38;;;16.10;99.90;;;;;;5046730;28;20237;-74
2021/10/18 08:14:26;;;;;;;4.30;3.72;;;16.40;99.90;;;;;;5054572;28;20229;-75
2021/10/18 08:16:53;;;;;;;3.75;3.45;;;16.80;99.90;;;;;;5057744;28;20283;-74
2021/10/18 08:19:20;;;;;;;4.10;3.67;;;16.70;99.90;;;;;;5053561;28;20517;-74
2021/10/18 08:21:47;;;;;;;4.18;3.88;;;16.60;99.90;;;;;;5054163;28;20268;-75
2021/10/18 08:24:14;;;;;;;3.80;3.50;;;16.50;99.90;;;;;;5056154;28;20302;-75
2021/10/18 08:26:41;;;;;;;3.92;3.60;;;16.50;99.90;;;;;;5064665;28;20788;-80
2021/10/18 08:29:08;;;;;;;4.72;3.75;;;16.80;99.90;;;;;;5059107;28;20218;-76
2021/10/18 08:31:37;;;;;;;4.53;3.58;;;17.00;99.90;;;;;;5057693;28;20657;-79
2021/10/18 08:34:04;;;;;;;4.72;4.20;;;16.60;99.90;;;;;;5055599;28;20237;-74
2021/10/18 08:36:35;;;;;;;3.85;3.55;;;16.40;99.90;;;;;;5058507;28;20787;-81
2021/10/18 08:41:46;;;;;;;4.20;3.80;;;16.60;99.90;;;;;;5054521;28;20217;-76
2021/10/18 08:44:16;;;;;;;4.50;4.10;;;16.60;99.90;;;;;;5055069;28;20233;-78
2021/10/18 08:46:48;;;;;;;4.43;3.90;;;16.20;99.90;;;;;;5056399;28;20228;-76
2021/10/18 08:49:18;;;;;;;4.32;3.92;;;16.50;99.90;;;;;;5059081;28;20222;-73
2021/10/18 08:51:45;;;;;;;4.10;3.80;;;16.80;99.90;;;;;;5053147;28;20276;-75
2021/10/18 08:54:12;;;;;;;3.75;3.45;;;16.60;99.90;;;;;;5055250;28;20271;-77
2021/10/18 08:56:40;;;;;;;4.97;4.25;;;16.70;99.90;;;;;;5051320;28;20283;-78
2021/10/18 08:59:07;;;;;;;4.80;4.05;;;16.60;99.90;;;;;;5055165;28;20335;-75
2021/10/18 09:01:45;;;;;;;8.23;3.72;;;16.60;99.90;;;;;;5054132;28;20541;-76
2021/10/18 09:04:26;;;;;;;3.80;3.47;;;16.90;99.90;;;;;;5052191;28;20615;-75
2021/10/18 09:06:55;;;;;;;4.45;3.80;;;16.70;99.90;;;;;;5056978;28;20313;-74
2021/10/18 09:09:25;;;;;;;9.23;3.70;;;16.50;99.90;;;;;;5056424;28;20218;-77
2021/10/18 09:11:53;;;;;;;6.57;3.60;;;16.50;99.90;;;;;;5058957;28;20222;-76
2021/10/18 09:14:20;;;;;;;3.42;3.13;;;16.50;99.90;;;;;;5055432;28;20237;-76
2021/10/18 09:16:49;;;;;;;4.20;3.80;;;16.80;99.90;;;;;;5053468;28;20238;-76
2021/10/18 09:19:18;;;;;;;4.22;3.80;;;17.00;99.90;;;;;;5051511;28;20226;-74
2021/10/18 09:21:48;;;;;;;5.63;3.42;;;16.80;99.90;;;;;;5052241;28;20230;-78
2021/10/18 09:24:17;;;;;;;5.90;4.20;;;16.70;99.90;;;;;;5041785;28;20221;-76
2021/10/18 09:26:45;;;;;;;5.25;3.45;;;17.00;99.90;;;;;;5059653;28;20291;-77
2021/10/18 09:29:14;;;;;;;4.00;3.70;;;17.20;99.90;;;;;;5052290;28;20333;-76
2021/10/18 09:31:44;;;;;;;4.47;3.78;;;17.10;99.90;;;;;;5056521;28;20222;-75
2021/10/18 09:34:17;;;;;;;4.03;3.72;;;17.30;99.90;;;;;;5049143;28;20299;-76
2021/10/18 09:36:46;;;;;;;4.28;3.88;;;17.50;99.90;;;;;;5054359;28;20493;-80
2021/10/18 09:39:16;;;;;;;3.67;3.38;;;17.50;99.90;;;;;;5059516;28;20229;-75
2021/10/18 09:41:44;;;;;;;2.90;2.70;;;17.80;99.90;;;;;;5054624;28;20224;-78
2021/10/18 09:44:30;;;;;;;4.40;3.53;;;18.10;99.90;;;;;;5053741;28;20304;-75
2021/10/18 09:47:17;;;;;;;4.50;3.85;;;18.40;99.90;;;;;;5052946;28;20224;-76
2021/10/18 10:51:08;;;;;;;5.30;3.00;;;18.10;99.90;;;;;;5053364;28;20304;-77
2021/10/18 10:53:47;;;;;;;3.60;3.30;;;18.10;99.90;;;;;;5056595;28;20254;-77
2021/10/18 10:56:22;;;;;;;3.20;2.50;;;17.90;99.90;;;;;;5056351;28;20657;-76
2021/10/18 10:58:51;;;;;;;4.35;3.25;;;17.80;99.90;;;;;;5057962;28;20229;-77
2021/10/18 11:01:57;;;;;;;2.67;2.47;;;17.90;99.90;;;;;;5054854;28;20214;-78
2021/10/18 11:04:43;;;;;;;3.03;2.72;;;18.10;99.90;;;;;;5051864;28;20226;-80
2021/10/18 11:07:12;;;;;;;3.22;2.60;;;18.10;99.90;;;;;;5042183;28;20245;-79
2021/10/18 11:09:41;;;;;;;3.45;3.10;;;18.40;99.90;;;;;;5057081;28;20222;-75
2021/10/18 11:12:11;;;;;;;2.78;2.50;;;18.60;99.90;;;;;;5056252;28;20601;-76
2021/10/18 11:14:39;;;;;;;2.70;2.50;;;18.60;99.90;;;;;;5060648;28;20695;-77
2021/10/18 11:17:06;;;;;;;2.90;2.70;;;18.80;99.90;;;;;;5053285;28;20318;-79
2021/10/18 11:19:33;;;;;;;2.40;2.20;;;18.90;99.90;;;;;;5061878;28;20237;-77
2021/10/18 11:22:01;;;;;;;2.65;2.45;;;19.00;99.90;;;;;;5061885;28;20444;-75
2021/10/18 11:24:41;;;;;;;2.30;2.10;;;18.90;99.90;;;;;;5065021;28;20277;-77
2021/10/18 11:27:10;;;;;;;2.55;2.35;;;18.70;99.90;;;;;;5058231;28;20635;-79
2021/10/18 11:29:37;;;;;;;3.38;2.58;;;19.00;99.90;;;;;;5058472;28;20222;-77
2021/10/18 11:32:09;;;;;;;2.38;2.17;;;19.20;99.90;;;;;;5057080;28;20795;-77
2021/10/18 11:34:36;;;;;;;2.83;2.63;;;18.90;99.90;;;;;;5054608;28;20230;-75
2021/10/18 11:37:04;;;;;;;2.70;2.50;;;18.90;99.90;;;;;;5059164;28;20230;-76
2021/10/18 11:39:33;;;;;;;3.15;2.90;;;18.70;99.90;;;;;;5057503;28;20273;-75
2021/10/18 11:42:14;;;;;;;2.60;2.40;;;18.60;99.90;;;;;;5056733;28;20283;-78
2021/10/18 11:44:47;;;;;;;2.70;2.30;;;18.70;99.90;;;;;;5054019;28;20301;-75
2021/10/18 11:47:32;;;;;;;2.22;2.00;;;18.70;99.90;;;;;;5059100;28;20218;-76
2021/10/18 11:50:16;;;;;;;2.40;2.20;;;18.90;99.90;;;;;;5057479;28;20230;-74
2021/10/18 11:52:55;;;;;;;3.63;2.55;;;18.70;99.90;;;;;;5059747;28;20217;-75
2021/10/18 11:55:25;;;;;;;2.47;2.28;;;18.70;99.90;;;;;;5058164;28;20389;-75
2021/10/18 11:57:55;;;;;;;2.63;2.40;;;18.50;99.90;;;;;;5063500;28;20237;-75
2021/10/18 12:00:25;;;;;;;2.35;2.15;;;18.60;99.90;;;;;;5051857;28;20218;-78
2021/10/18 12:02:53;;;;;;;3.10;2.10;;;18.70;99.90;;;;;;5057482;28;20260;-75
2021/10/18 12:05:23;;;;;;;2.75;2.35;;;19.00;99.90;;;;;;5056477;28;20230;-79
2021/10/18 12:07:52;;;;;;;2.95;2.72;;;19.10;99.90;;;;;;5061466;28;20214;-75
2021/10/18 12:10:27;;;;;;;2.25;2.05;;;19.00;99.90;;;;;;5059172;28;20222;-76
2021/10/18 12:13:26;;;;;;;2.50;2.30;;;18.90;99.90;;;;;;5055479;28;20320;-76
2021/10/18 12:16:08;;;;;;;2.60;2.40;;;18.80;99.90;;;;;;5058495;28;20234;-75
2021/10/18 12:18:38;;;;;;;2.35;2.10;;;18.60;99.90;;;;;;5066793;28;20626;-76
2021/10/18 12:21:07;;;;;;;2.55;2.35;;;18.70;99.90;;;;;;5059036;28;20664;-76
2021/10/18 12:23:37;;;;;;;2.40;2.17;;;18.80;99.90;;;;;;5051204;28;20486;-76
2021/10/18 12:26:12;;;;;;;2.55;2.35;;;18.80;99.90;;;;;;5057775;28;20213;-75
2021/10/18 12:28:44;;;;;;;2.33;2.22;;;18.70;99.90;;;;;;5058140;28;20308;-75
2021/10/18 12:31:32;;;;;;;2.45;2.25;;;18.60;99.90;;;;;;5062852;28;20225;-77
2021/10/18 12:34:15;;;;;;;2.15;1.95;;;18.60;99.90;;;;;;5057283;28;20279;-77
2021/10/18 12:36:54;;;;;;;3.03;2.28;;;18.50;99.90;;;;;;5052023;28;20226;-77
2021/10/18 12:39:46;;;;;;;2.40;2.20;;;18.50;99.90;;;;;;5056695;28;20221;-77
2021/10/18 12:42:14;;;;;;;3.85;2.60;;;18.40;99.90;;;;;;5056483;28;20225;-81
2021/10/18 12:44:45;;;;;;;3.42;2.50;;;18.20;99.90;;;;;;5051463;28;20221;-78
2021/10/18 12:47:15;;;;;;;2.90;2.63;;;18.20;99.90;;;;;;5055327;28;20230;-77
2021/10/18 12:49:43;;;;;;;2.78;2.58;;;18.20;99.90;;;;;;5101322;22;20225;-75
2021/10/18 12:52:11;;;;;;;3.97;2.45;;;18.00;99.90;;;;;;5074631;28;20309;-75
2021/10/18 12:54:41;;;;;;;2.78;2.55;;;18.00;99.90;;;;;;5051263;28;20221;-76
2021/10/18 12:57:09;;;;;;;2.88;2.58;;;18.00;99.90;;;;;;5078053;28;20283;-75
2021/10/18 12:59:39;;;;;;;2.60;2.40;;;18.10;99.90;;;;;;5075274;28;20240;-74
2021/10/18 13:02:23;;;;;;;2.40;2.20;;;18.10;99.90;;;;;;5080257;28;20220;-75
2021/10/18 13:05:10;;;;;;;2.88;2.60;;;18.10;99.90;;;;;;5075491;28;20229;-74
2021/10/18 13:07:39;;;;;;;2.60;2.40;;;18.20;99.90;;;;;;5072875;28;20223;-77
2021/10/18 13:10:08;;;;;;;2.53;2.17;;;18.30;99.90;;;;;;5078616;28;20230;-75
2021/10/18 13:12:36;;;;;;;2.80;2.10;;;18.40;99.90;;;;;;5082078;28;20699;-75
2021/10/18 13:15:04;;;;;;;2.50;2.30;;;18.40;99.90;;;;;;5082468;28;20236;-76
2021/10/18 13:17:33;;;;;;;2.47;2.28;;;18.30;99.90;;;;;;5078973;28;20213;-75
2021/10/18 13:20:00;;;;;;;2.67;2.30;;;18.30;99.90;;;;;;5084292;28;20707;-76
2021/10/18 13:22:27;;;;;;;2.47;2.28;;;18.30;99.90;;;;;;5082406;28;20279;-75
2021/10/18 13:24:54;;;;;;;2.33;2.15;;;18.50;99.90;;;;;;5082262;28;20221;-75
2021/10/18 13:27:22;;;;;;;3.05;2.45;;;18.50;99.90;;;;;;5074343;28;20276;-75
2021/10/18 13:29:49;;;;;;;2.50;2.30;;;18.50;99.90;;;;;;5077503;28;20229;-76
2021/10/18 13:32:17;;;;;;;2.88;2.67;;;18.50;99.90;;;;;;5086192;28;20573;-75
2021/10/18 13:34:46;;;;;;;2.88;2.63;;;18.40;99.90;;;;;;5077212;28;20703;-74
2021/10/18 13:37:14;;;;;;;2.90;2.70;;;18.40;99.90;;;;;;5077168;28;20229;-75
2021/10/18 13:39:42;;;;;;;2.90;2.70;;;18.50;99.90;;;;;;5084411;28;20225;-75
2021/10/18 13:42:09;;;;;;;2.80;2.58;;;18.60;99.90;;;;;;5076059;28;20228;-74
2021/10/18 13:44:38;;;;;;;2.97;2.63;;;18.50;99.90;;;;;;5083146;28;20278;-73
2021/10/18 13:47:05;;;;;;;3.20;2.90;;;18.60;99.90;;;;;;5080408;28;20652;-74
2021/10/18 13:49:32;;;;;;;3.35;2.67;;;18.70;99.90;;;;;;5076067;28;20291;-73
2021/10/18 13:52:01;;;;;;;2.70;2.50;;;18.90;99.90;;;;;;5083342;28;20278;-73
2021/10/18 13:54:28;;;;;;;3.22;2.70;;;18.90;99.90;;;;;;5067238;28;20225;-75
2021/10/18 13:56:55;;;;;;;4.70;2.70;;;19.00;99.90;;;;;;5080474;28;20262;-75
2021/10/18 13:59:22;;;;;;;3.63;3.33;;;18.90;99.90;;;;;;5076473;28;21970;-75
2021/10/18 14:01:50;;;;;;;3.20;2.90;;;18.90;99.90;;;;;;5081867;28;20229;-75
2021/10/18 14:04:18;;;;;;;2.45;2.20;;;18.80;99.90;;;;;;5081499;28;20589;-75